Time;durP1;ratioP1;P1;durP2;ratioP2;P2;SDS_P1;SDS_P2;PMS_P1;PMS_P2;Temp;Humidity;BMP_temperature;BMP_pressure;BME280_temperature;BME280_humidity;BME280_pressure;Samples;Min_cycle;Max_cycle;Signal;HPM_P1;HPM_P2
2022/03/13 00:00:50;;;;;;;1.30;1.00;;;14.00;53.10;;;;;;5050913;28;20049;-89
2022/03/13 00:03:18;;;;;;;1.20;1.00;;;13.90;53.10;;;;;;5020910;28;20060;-89
2022/03/13 00:05:46;;;;;;;1.25;0.90;;;13.90;53.20;;;;;;5023386;28;20013;-89
2022/03/13 00:08:26;;;;;;;1.67;0.80;;;13.90;52.90;;;;;;5017689;28;20398;-89
2022/03/13 00:10:56;;;;;;;1.05;0.90;;;13.80;53.70;;;;;;5030537;28;20037;-89
2022/03/13 00:13:24;;;;;;;1.23;0.90;;;13.80;53.00;;;;;;5023528;28;20158;-89
2022/03/13 00:15:51;;;;;;;1.70;1.02;;;13.80;53.10;;;;;;5033563;28;20151;-89
2022/03/13 00:18:17;;;;;;;1.10;0.90;;;13.80;53.10;;;;;;5050691;28;20394;-89
2022/03/13 00:20:44;;;;;;;1.35;0.88;;;13.80;53.10;;;;;;5009810;28;20031;-89
2022/03/13 00:23:10;;;;;;;1.13;0.77;;;13.80;53.20;;;;;;5018797;28;20486;-89
2022/03/13 00:25:36;;;;;;;1.10;0.80;;;13.70;53.00;;;;;;5068398;28;20032;-89
2022/03/13 00:28:03;;;;;;;1.20;0.90;;;13.70;53.20;;;;;;5060033;28;20063;-89
2022/03/13 00:30:29;;;;;;;1.58;1.05;;;13.70;53.20;;;;;;5042188;28;20050;-89
2022/03/13 00:32:55;;;;;;;1.10;0.90;;;13.70;53.20;;;;;;5051473;28;20025;-89
2022/03/13 00:35:20;;;;;;;1.20;0.90;;;13.60;53.20;;;;;;5013804;28;20500;-89
2022/03/13 00:37:46;;;;;;;1.45;0.90;;;13.60;53.30;;;;;;5043560;28;20029;-89
2022/03/13 00:40:13;;;;;;;1.60;1.00;;;13.60;54.00;;;;;;5019776;28;20055;-89
2022/03/13 00:42:38;;;;;;;1.35;1.00;;;13.50;53.50;;;;;;5051154;28;20025;-89
2022/03/13 00:45:05;;;;;;;0.95;0.85;;;13.60;53.70;;;;;;5027720;28;20038;-89
2022/03/13 00:47:30;;;;;;;1.55;1.00;;;13.50;53.80;;;;;;5027255;28;20063;-89
2022/03/13 00:49:56;;;;;;;1.40;0.97;;;13.50;53.80;;;;;;5024371;28;20377;-89
2022/03/13 00:52:22;;;;;;;1.35;1.00;;;13.50;53.90;;;;;;5014996;28;20029;-90
2022/03/13 00:54:48;;;;;;;1.57;0.80;;;13.50;54.00;;;;;;5029157;28;20040;-89
2022/03/13 00:57:14;;;;;;;2.53;0.98;;;13.40;54.00;;;;;;5052955;28;20033;-89
2022/03/13 00:59:40;;;;;;;1.07;0.80;;;13.40;54.10;;;;;;5025479;28;20387;-89
2022/03/13 01:02:06;;;;;;;1.40;1.00;;;13.40;54.20;;;;;;5020868;28;20291;-89
2022/03/13 01:04:32;;;;;;;0.82;0.80;;;13.30;54.00;;;;;;5028112;28;20036;-89
2022/03/13 01:06:57;;;;;;;0.80;0.80;;;13.30;54.30;;;;;;5008312;28;20024;-89
2022/03/13 01:09:23;;;;;;;1.10;0.83;;;13.30;54.20;;;;;;5033084;28;20281;-89
2022/03/13 01:11:49;;;;;;;1.58;1.00;;;13.30;54.40;;;;;;5036860;28;20064;-88
2022/03/13 01:14:16;;;;;;;2.20;0.93;;;13.30;54.60;;;;;;5034973;28;20162;-88
2022/03/13 01:16:42;;;;;;;1.35;1.00;;;13.30;54.80;;;;;;5060328;28;20028;-88
2022/03/13 01:19:08;;;;;;;1.20;0.90;;;13.30;54.90;;;;;;5040286;28;20017;-89
2022/03/13 01:21:37;;;;;;;1.50;0.95;;;13.30;55.20;;;;;;5039453;28;20108;-89
2022/03/13 01:24:18;;;;;;;1.65;1.05;;;13.30;56.00;;;;;;5040801;28;20040;-89
2022/03/13 01:26:44;;;;;;;1.35;1.08;;;13.20;57.00;;;;;;5046481;28;20025;-89
2022/03/13 01:29:11;;;;;;;1.58;0.90;;;13.30;56.20;;;;;;5039524;28;20103;-89
2022/03/13 01:31:39;;;;;;;1.47;0.90;;;13.20;55.50;;;;;;5042282;28;20040;-89
2022/03/13 01:34:10;;;;;;;2.38;1.25;;;13.30;55.60;;;;;;5057150;28;20473;-89
2022/03/13 01:36:35;;;;;;;1.27;0.90;;;13.30;55.90;;;;;;5060483;28;20020;-89
2022/03/13 01:39:02;;;;;;;1.73;1.10;;;13.30;55.70;;;;;;5008883;28;20029;-89
2022/03/13 01:41:29;;;;;;;1.40;1.00;;;13.30;55.90;;;;;;5026042;28;20242;-88
2022/03/13 01:43:59;;;;;;;1.13;0.88;;;13.30;56.30;;;;;;5045385;28;20106;-89
2022/03/13 01:46:25;;;;;;;1.52;1.10;;;13.20;56.40;;;;;;5056633;28;20569;-89
2022/03/13 01:48:58;;;;;;;1.70;1.20;;;13.30;55.90;;;;;;5058871;28;20045;-89
2022/03/13 01:51:25;;;;;;;1.43;1.03;;;13.20;56.20;;;;;;5056507;28;20043;-89
2022/03/13 01:53:57;;;;;;;1.17;1.00;;;13.20;55.90;;;;;;5014497;28;20116;-89
2022/03/13 01:56:24;;;;;;;1.55;1.00;;;13.20;56.00;;;;;;5043019;28;20266;-89
2022/03/13 01:58:52;;;;;;;1.60;1.00;;;13.20;55.90;;;;;;5042394;28;20013;-88
2022/03/13 02:01:19;;;;;;;1.63;1.13;;;13.20;56.00;;;;;;5026566;28;20048;-89
2022/03/13 02:03:46;;;;;;;1.53;1.07;;;13.20;56.00;;;;;;5059089;28;20029;-89
2022/03/13 02:06:12;;;;;;;1.67;0.90;;;13.30;56.20;;;;;;5038124;28;20020;-89
2022/03/13 02:08:38;;;;;;;1.90;1.00;;;13.20;56.10;;;;;;5039641;28;20123;-89
2022/03/13 02:11:05;;;;;;;1.20;0.88;;;13.20;56.00;;;;;;5020306;28;20098;-89
2022/03/13 02:13:33;;;;;;;1.33;0.80;;;13.20;56.00;;;;;;5028356;28;20162;-89
2022/03/13 02:15:58;;;;;;;1.35;0.80;;;13.20;56.20;;;;;;5030129;28;20396;-89
2022/03/13 02:18:24;;;;;;;1.23;1.00;;;13.20;56.20;;;;;;5017257;28;20028;-89
2022/03/13 02:20:50;;;;;;;2.13;1.10;;;13.10;56.10;;;;;;5015926;28;20610;-89
2022/03/13 02:23:18;;;;;;;1.35;1.00;;;13.20;56.10;;;;;;5033891;28;20662;-89
2022/03/13 02:25:46;;;;;;;1.13;0.90;;;13.10;56.10;;;;;;5035522;28;20029;-89
2022/03/13 02:28:13;;;;;;;1.07;0.90;;;13.20;56.40;;;;;;5028869;28;20232;-88
2022/03/13 02:30:39;;;;;;;1.10;0.90;;;13.10;56.30;;;;;;5034965;28;20041;-88
2022/03/13 02:33:04;;;;;;;1.10;1.00;;;13.10;56.20;;;;;;5032859;28;20024;-89
2022/03/13 02:35:30;;;;;;;1.33;1.00;;;13.10;56.30;;;;;;5028904;28;20110;-89
2022/03/13 02:37:56;;;;;;;2.00;1.05;;;13.10;56.30;;;;;;5049828;28;20028;-89
2022/03/13 02:40:24;;;;;;;1.70;1.20;;;13.10;56.30;;;;;;5056506;28;20420;-88
2022/03/13 02:42:51;;;;;;;1.10;0.80;;;13.10;57.20;;;;;;5006857;28;20279;-88
2022/03/13 02:45:28;;;;;;;1.20;1.00;;;13.10;56.70;;;;;;5009170;28;20321;-88
2022/03/13 02:47:54;;;;;;;1.40;1.00;;;13.00;57.10;;;;;;5057029;28;20040;-89
2022/03/13 02:50:20;;;;;;;1.40;1.00;;;13.00;56.40;;;;;;5045576;28;20241;-88
2022/03/13 02:52:46;;;;;;;1.20;1.03;;;13.00;56.50;;;;;;5028776;28;20052;-88
2022/03/13 02:55:12;;;;;;;1.43;1.00;;;13.00;56.60;;;;;;5053906;28;20266;-89
2022/03/13 02:57:39;;;;;;;1.53;1.10;;;13.00;56.70;;;;;;5008866;28;20033;-89
2022/03/13 03:00:08;;;;;;;1.52;1.08;;;13.00;56.70;;;;;;5040672;28;20404;-89
2022/03/13 03:02:33;;;;;;;1.27;1.00;;;13.00;56.80;;;;;;5027690;28;20440;-89
2022/03/13 03:05:06;;;;;;;1.27;1.00;;;13.00;56.80;;;;;;5049416;28;20033;-89
2022/03/13 03:07:32;;;;;;;1.70;1.20;;;13.00;57.10;;;;;;5034164;28;20029;-89
2022/03/13 03:09:58;;;;;;;1.70;1.10;;;12.90;56.80;;;;;;5029024;28;20528;-89
2022/03/13 03:12:24;;;;;;;1.73;1.17;;;12.90;56.80;;;;;;5016906;28;20041;-89
2022/03/13 03:14:50;;;;;;;1.60;1.20;;;12.90;57.00;;;;;;5051306;28;20535;-89
2022/03/13 03:17:16;;;;;;;1.60;1.13;;;12.90;57.20;;;;;;5034228;28;20301;-88
2022/03/13 03:19:42;;;;;;;1.42;1.00;;;12.90;57.10;;;;;;5056448;28;20066;-89
2022/03/13 03:22:08;;;;;;;1.70;1.10;;;12.90;57.50;;;;;;5025852;28;20043;-89
2022/03/13 03:24:34;;;;;;;1.67;0.93;;;12.90;57.40;;;;;;5015568;28;20028;-89
2022/03/13 03:27:00;;;;;;;1.50;1.00;;;12.90;57.30;;;;;;5005334;28;20041;-89
2022/03/13 03:29:26;;;;;;;1.40;0.93;;;12.90;57.60;;;;;;5031475;28;20030;-89
2022/03/13 03:31:53;;;;;;;1.83;1.23;;;12.90;58.30;;;;;;5026897;28;20251;-89
2022/03/13 03:34:21;;;;;;;1.63;1.10;;;12.90;57.30;;;;;;5034602;28;20071;-89
2022/03/13 03:36:53;;;;;;;1.80;1.10;;;12.90;57.70;;;;;;5054607;28;20057;-89
2022/03/13 03:39:20;;;;;;;2.05;1.20;;;12.90;57.80;;;;;;5029320;28;20086;-89
2022/03/13 03:41:47;;;;;;;1.17;1.02;;;12.90;57.70;;;;;;5018724;28;20225;-89
2022/03/13 03:44:14;;;;;;;1.38;1.00;;;12.90;57.90;;;;;;5023103;28;20423;-89
2022/03/13 03:46:42;;;;;;;1.30;0.97;;;12.90;57.80;;;;;;5042887;28;20037;-89
2022/03/13 03:49:08;;;;;;;1.90;1.20;;;12.80;57.80;;;;;;5040796;28;20025;-89
2022/03/13 03:51:34;;;;;;;1.52;1.10;;;12.90;58.00;;;;;;5022418;28;20025;-89
2022/03/13 03:54:01;;;;;;;1.80;1.05;;;12.90;57.80;;;;;;5034638;28;20043;-89
2022/03/13 03:56:26;;;;;;;1.70;1.30;;;12.80;57.80;;;;;;5054662;28;20479;-89
2022/03/13 03:58:52;;;;;;;2.00;1.20;;;12.80;57.80;;;;;;5033827;28;20142;-89
2022/03/13 04:01:18;;;;;;;1.85;1.25;;;12.80;57.90;;;;;;5020338;28;20169;-89
2022/03/13 04:03:44;;;;;;;1.93;1.20;;;12.80;57.80;;;;;;5029057;28;20033;-88
2022/03/13 04:06:09;;;;;;;1.77;1.13;;;12.80;58.00;;;;;;5058296;28;20024;-88
2022/03/13 04:08:35;;;;;;;2.00;1.10;;;12.80;58.00;;;;;;5055202;28;20078;-89
2022/03/13 04:11:01;;;;;;;1.77;1.10;;;12.70;57.90;;;;;;5048005;28;20048;-88
2022/03/13 04:13:28;;;;;;;1.67;1.17;;;12.80;58.10;;;;;;5011618;28;20025;-89
2022/03/13 04:15:55;;;;;;;2.03;1.30;;;12.70;58.10;;;;;;5035080;28;20021;-89
2022/03/13 04:18:22;;;;;;;1.70;1.10;;;12.70;58.30;;;;;;5037347;28;20029;-89
2022/03/13 04:20:48;;;;;;;1.33;1.05;;;12.70;58.20;;;;;;5037521;28;20250;-89
2022/03/13 04:23:14;;;;;;;1.60;1.10;;;12.70;58.30;;;;;;5023181;28;20022;-89
2022/03/13 04:25:40;;;;;;;2.17;1.13;;;12.60;58.30;;;;;;5047864;28;20016;-89
2022/03/13 04:28:08;;;;;;;1.90;1.30;;;12.60;58.20;;;;;;5043714;28;20165;-89
2022/03/13 04:30:35;;;;;;;1.58;1.13;;;12.60;58.20;;;;;;5014608;28;20029;-89
2022/03/13 04:33:01;;;;;;;2.00;1.30;;;12.60;58.20;;;;;;5016032;28;20036;-89
2022/03/13 04:35:27;;;;;;;2.00;1.47;;;12.60;58.20;;;;;;5045983;28;20110;-89
2022/03/13 04:37:52;;;;;;;2.15;1.20;;;12.60;58.30;;;;;;5041950;28;20523;-89
2022/03/13 04:40:18;;;;;;;1.90;1.10;;;12.60;58.60;;;;;;5054632;28;20033;-88
2022/03/13 04:42:45;;;;;;;1.83;1.20;;;12.60;58.70;;;;;;5016810;28;20214;-89
2022/03/13 04:45:12;;;;;;;1.60;1.13;;;12.50;58.80;;;;;;5022548;28;20044;-89
2022/03/13 04:47:38;;;;;;;1.93;1.33;;;12.50;58.80;;;;;;5009983;28;20276;-89
2022/03/13 04:50:04;;;;;;;2.20;1.30;;;12.50;58.70;;;;;;5021562;28;20064;-89
2022/03/13 04:52:30;;;;;;;1.20;0.98;;;12.50;58.80;;;;;;5017080;28;20098;-89
2022/03/13 04:54:56;;;;;;;1.93;1.30;;;12.50;58.60;;;;;;5052765;28;20718;-89
2022/03/13 04:57:22;;;;;;;2.28;1.45;;;12.40;58.50;;;;;;5050225;28;20053;-89
2022/03/13 04:59:47;;;;;;;1.75;1.27;;;12.40;58.60;;;;;;5034667;28;20221;-89
2022/03/13 05:02:13;;;;;;;1.87;1.33;;;12.40;58.60;;;;;;5025699;28;20033;-89
2022/03/13 05:04:40;;;;;;;2.35;1.58;;;12.40;58.60;;;;;;5034043;28;20381;-89
2022/03/13 05:07:06;;;;;;;2.80;1.50;;;12.30;58.70;;;;;;5041678;28;20025;-89
2022/03/13 05:09:32;;;;;;;3.22;1.38;;;12.30;58.90;;;;;;5055433;28;20301;-89
2022/03/13 05:12:09;;;;;;;2.88;1.80;;;12.20;59.00;;;;;;5017473;28;20053;-89
2022/03/13 05:14:35;;;;;;;2.85;1.80;;;12.20;59.00;;;;;;5029314;28;20033;-89
2022/03/13 05:17:01;;;;;;;3.53;1.83;;;12.20;59.20;;;;;;5016057;28;20028;-88
2022/03/13 05:19:26;;;;;;;2.80;1.80;;;12.10;59.40;;;;;;5013492;28;20053;-89
2022/03/13 05:21:52;;;;;;;2.10;1.40;;;12.10;59.50;;;;;;5017851;28;20055;-89
2022/03/13 05:24:18;;;;;;;3.40;2.00;;;12.10;59.40;;;;;;5039929;28;20937;-89
2022/03/13 05:26:45;;;;;;;3.80;2.20;;;12.10;59.40;;;;;;5048552;28;20047;-89
2022/03/13 05:29:11;;;;;;;2.80;1.77;;;12.10;59.50;;;;;;5037970;28;20036;-89
2022/03/13 05:31:37;;;;;;;3.03;1.90;;;12.10;59.60;;;;;;5005204;28;20273;-89
2022/03/13 05:34:03;;;;;;;3.65;1.70;;;12.10;59.60;;;;;;5009340;28;20048;-89
2022/03/13 05:36:29;;;;;;;3.13;1.88;;;12.00;59.80;;;;;;5038611;28;20025;-89
2022/03/13 05:38:55;;;;;;;3.47;2.00;;;12.10;59.70;;;;;;5027359;28;20103;-89
2022/03/13 05:41:23;;;;;;;3.25;2.13;;;12.00;59.50;;;;;;5034257;28;20172;-89
2022/03/13 05:43:50;;;;;;;3.15;1.98;;;12.00;59.50;;;;;;5019180;28;20336;-89
2022/03/13 05:46:16;;;;;;;3.07;1.90;;;12.00;59.60;;;;;;5018995;28;20080;-89
2022/03/13 05:48:42;;;;;;;3.45;2.15;;;12.00;59.50;;;;;;5045974;28;20649;-89
2022/03/13 05:51:07;;;;;;;3.70;2.20;;;12.00;59.50;;;;;;5011745;28;20138;-88
2022/03/13 05:53:33;;;;;;;3.47;2.27;;;12.00;59.50;;;;;;5014503;28;20027;-89
2022/03/13 05:55:59;;;;;;;4.00;2.60;;;12.00;59.50;;;;;;5018460;28;20025;-89
2022/03/13 05:58:24;;;;;;;4.33;2.50;;;11.90;59.40;;;;;;5019332;28;20029;-89
2022/03/13 06:01:02;;;;;;;3.60;2.37;;;11.80;59.40;;;;;;5029621;28;20033;-89
2022/03/13 06:03:28;;;;;;;3.58;2.00;;;11.90;59.60;;;;;;4998707;28;20509;-89
2022/03/13 06:05:55;;;;;;;3.13;2.00;;;11.80;59.60;;;;;;5005533;28;20025;-89
2022/03/13 06:08:21;;;;;;;2.47;1.77;;;11.70;59.70;;;;;;5007651;28;20245;-89
2022/03/13 06:10:46;;;;;;;2.90;1.90;;;11.70;59.60;;;;;;5022412;28;20496;-88
2022/03/13 06:13:13;;;;;;;2.87;1.97;;;11.70;59.80;;;;;;5030748;28;20239;-89
2022/03/13 06:15:39;;;;;;;4.40;2.15;;;11.60;59.80;;;;;;5019590;28;20021;-89
2022/03/13 06:18:04;;;;;;;3.63;2.05;;;11.60;60.00;;;;;;5019698;28;20115;-89
2022/03/13 06:20:30;;;;;;;2.87;1.90;;;11.50;60.20;;;;;;5006943;28;20739;-89
2022/03/13 06:22:57;;;;;;;3.20;2.03;;;11.50;60.00;;;;;;5019437;28;20405;-89
2022/03/13 06:25:22;;;;;;;3.15;1.90;;;11.40;60.00;;;;;;5036754;28;20254;-89
2022/03/13 06:27:48;;;;;;;3.45;2.22;;;11.40;60.10;;;;;;5037168;28;20071;-89
2022/03/13 06:30:16;;;;;;;3.30;2.10;;;11.30;60.20;;;;;;5033552;28;20335;-89
2022/03/13 06:32:47;;;;;;;3.28;1.98;;;11.30;60.50;;;;;;5025724;28;20059;-89
2022/03/13 06:35:13;;;;;;;3.00;2.10;;;11.20;60.50;;;;;;5002597;28;20522;-89
2022/03/13 06:37:39;;;;;;;3.20;1.80;;;11.20;60.60;;;;;;5018127;28;20605;-89
2022/03/13 06:40:07;;;;;;;3.10;1.95;;;11.20;60.90;;;;;;5009230;28;20163;-89
2022/03/13 06:42:33;;;;;;;3.13;2.10;;;11.10;61.00;;;;;;5045068;28;20071;-89
2022/03/13 06:45:00;;;;;;;3.83;2.58;;;11.10;61.20;;;;;;5013046;28;20087;-89
2022/03/13 06:47:26;;;;;;;3.28;2.03;;;11.10;61.50;;;;;;5009858;28;20700;-89
2022/03/13 06:49:52;;;;;;;3.63;1.90;;;11.10;61.30;;;;;;5035872;28;20029;-89
2022/03/13 06:52:18;;;;;;;3.03;2.03;;;11.20;61.70;;;;;;4984477;28;20037;-89
2022/03/13 06:54:45;;;;;;;4.10;2.33;;;11.20;62.00;;;;;;5023481;28;20392;-89
2022/03/13 06:57:14;;;;;;;2.85;1.92;;;11.20;62.10;;;;;;5023080;28;20078;-89
2022/03/13 06:59:42;;;;;;;3.60;2.40;;;11.30;62.00;;;;;;5030393;28;20034;-89
2022/03/13 07:02:08;;;;;;;3.78;2.25;;;11.30;62.20;;;;;;5011913;28;20052;-89
2022/03/13 07:04:34;;;;;;;3.67;2.15;;;11.40;62.50;;;;;;5032455;28;20037;-89
2022/03/13 07:07:00;;;;;;;4.07;2.30;;;11.50;62.50;;;;;;5011920;28;20039;-89
2022/03/13 07:09:26;;;;;;;4.30;2.42;;;11.60;63.00;;;;;;4999818;28;20247;-89
2022/03/13 07:11:52;;;;;;;3.70;2.20;;;11.80;62.90;;;;;;5035891;28;20101;-89
2022/03/13 07:14:21;;;;;;;4.50;2.63;;;11.90;62.80;;;;;;5015942;28;20317;-89
2022/03/13 07:16:49;;;;;;;4.60;2.75;;;12.10;62.90;;;;;;5050434;28;20519;-89
2022/03/13 07:19:15;;;;;;;4.32;2.67;;;12.30;63.10;;;;;;5006018;28;20213;-89
2022/03/13 07:21:40;;;;;;;5.00;2.97;;;12.40;62.80;;;;;;5026126;28;20037;-89
2022/03/13 07:24:06;;;;;;;5.30;3.23;;;12.60;62.50;;;;;;5008451;28;20032;-89
2022/03/13 07:26:32;;;;;;;6.78;3.65;;;12.70;62.30;;;;;;5010212;28;20027;-88
2022/03/13 07:29:01;;;;;;;6.00;3.40;;;12.90;62.20;;;;;;5025006;28;20029;-89
2022/03/13 07:31:28;;;;;;;7.25;4.35;;;13.00;62.00;;;;;;5017755;28;20036;-89
2022/03/13 07:33:53;;;;;;;8.45;4.85;;;13.20;62.00;;;;;;5010508;28;20077;-89
2022/03/13 07:36:19;;;;;;;7.43;4.30;;;13.30;62.20;;;;;;5035446;28;20663;-89
2022/03/13 07:38:45;;;;;;;8.10;4.97;;;13.50;62.50;;;;;;5006635;28;20029;-89
2022/03/13 07:41:11;;;;;;;8.07;4.78;;;13.70;63.00;;;;;;5002666;28;20336;-88
2022/03/13 07:43:37;;;;;;;7.57;4.10;;;14.00;63.00;;;;;;5026207;28;20101;-89
2022/03/13 07:46:02;;;;;;;7.25;4.20;;;14.20;63.10;;;;;;5016348;28;20025;-89
2022/03/13 07:48:29;;;;;;;7.35;4.72;;;14.60;63.40;;;;;;5024341;28;20135;-89
2022/03/13 07:50:58;;;;;;;7.83;5.13;;;14.90;63.40;;;;;;5039690;28;20025;-89
2022/03/13 07:53:27;;;;;;;7.03;4.45;;;15.20;63.20;;;;;;5002882;28;20165;-90
2022/03/13 07:55:56;;;;;;;7.88;4.47;;;15.60;62.80;;;;;;5026768;28;20112;-89
2022/03/13 07:58:22;;;;;;;8.43;4.63;;;15.90;62.40;;;;;;5035817;28;20028;-89
2022/03/13 08:00:49;;;;;;;8.63;5.20;;;16.30;62.40;;;;;;5024750;28;20370;-89
2022/03/13 08:03:16;;;;;;;8.73;5.43;;;16.60;62.10;;;;;;5026370;28;20443;-89
2022/03/13 08:05:42;;;;;;;7.70;4.97;;;17.00;61.70;;;;;;5007661;28;20475;-89
2022/03/13 08:08:08;;;;;;;7.60;4.88;;;17.30;60.80;;;;;;5031991;28;20153;-89
2022/03/13 08:10:33;;;;;;;8.10;4.90;;;17.70;60.50;;;;;;5024205;28;20064;-89
2022/03/13 08:12:59;;;;;;;6.88;4.57;;;17.90;59.90;;;;;;5009033;28;20222;-89
2022/03/13 08:15:24;;;;;;;8.70;5.57;;;18.20;59.30;;;;;;5039516;28;20028;-89
2022/03/13 08:17:50;;;;;;;7.45;4.88;;;18.50;59.00;;;;;;5016588;28;20508;-89
2022/03/13 08:20:16;;;;;;;7.03;4.40;;;18.80;58.90;;;;;;5027904;28;20033;-89
2022/03/13 08:22:42;;;;;;;7.70;5.00;;;19.00;58.50;;;;;;5016552;28;20127;-89
2022/03/13 08:25:08;;;;;;;6.80;4.63;;;19.30;57.80;;;;;;4996290;28;20240;-89
2022/03/13 08:27:34;;;;;;;6.40;4.00;;;19.50;57.60;;;;;;5022522;28;20037;-89
2022/03/13 08:30:01;;;;;;;5.10;3.60;;;19.70;57.70;;;;;;5024262;28;20136;-89
2022/03/13 08:32:27;;;;;;;7.05;4.63;;;20.00;57.80;;;;;;5019007;28;20064;-89
2022/03/13 08:34:53;;;;;;;6.83;4.50;;;20.20;56.70;;;;;;5029993;28;20175;-89
2022/03/13 08:37:18;;;;;;;5.30;3.70;;;20.50;55.70;;;;;;5031433;28;20060;-89
2022/03/13 08:39:44;;;;;;;5.75;4.32;;;20.60;55.30;;;;;;5010166;28;20578;-90
2022/03/13 08:42:10;;;;;;;4.97;3.20;;;20.70;55.00;;;;;;5002595;28;20193;-89
2022/03/13 08:44:36;;;;;;;5.30;3.75;;;20.90;53.60;;;;;;5019415;28;20163;-90
2022/03/13 08:47:01;;;;;;;5.60;3.80;;;21.00;52.90;;;;;;5020824;28;20548;-89
2022/03/13 08:49:28;;;;;;;5.82;4.03;;;21.10;52.30;;;;;;5024320;28;20139;-89
2022/03/13 08:51:54;;;;;;;4.30;3.20;;;21.20;52.10;;;;;;5020094;28;20059;-89
2022/03/13 08:54:20;;;;;;;5.05;3.47;;;21.30;52.00;;;;;;5013516;28;20546;-90
2022/03/13 08:56:48;;;;;;;5.03;3.38;;;21.30;51.40;;;;;;5006170;28;20025;-89
2022/03/13 08:59:15;;;;;;;5.60;3.80;;;21.40;51.80;;;;;;5023443;28;20564;-90
2022/03/13 09:01:42;;;;;;;4.88;3.42;;;21.50;50.90;;;;;;5040080;28;20504;-89
2022/03/13 09:04:08;;;;;;;3.88;2.78;;;21.60;50.50;;;;;;5020932;28;20124;-88
2022/03/13 09:06:33;;;;;;;4.00;3.00;;;21.80;50.80;;;;;;5034193;28;20440;-87
2022/03/13 09:08:59;;;;;;;4.50;3.33;;;21.90;50.50;;;;;;5041616;28;20283;-87
2022/03/13 09:11:25;;;;;;;5.23;3.67;;;22.00;50.70;;;;;;5012678;28;20131;-87
2022/03/13 09:13:50;;;;;;;5.10;3.75;;;22.20;49.20;;;;;;5003314;28;20029;-87
2022/03/13 09:16:17;;;;;;;4.83;3.60;;;22.30;48.10;;;;;;5022327;28;20081;-88
2022/03/13 09:18:42;;;;;;;4.03;3.05;;;22.40;48.10;;;;;;5018769;28;20151;-87
2022/03/13 09:21:08;;;;;;;4.40;3.00;;;22.50;48.50;;;;;;5035179;28;20289;-87
2022/03/13 09:23:34;;;;;;;5.20;3.10;;;22.60;48.50;;;;;;5019695;28;20034;-87
2022/03/13 09:25:59;;;;;;;4.25;3.17;;;22.70;48.40;;;;;;5009748;28;20250;-87
2022/03/13 09:28:26;;;;;;;4.47;3.17;;;22.90;47.80;;;;;;5044982;28;20076;-87
2022/03/13 09:30:52;;;;;;;4.72;3.40;;;23.00;47.30;;;;;;4991734;28;20037;-87
2022/03/13 09:33:18;;;;;;;4.82;3.10;;;23.10;47.70;;;;;;5022727;28;20222;-87
2022/03/13 09:35:44;;;;;;;3.87;2.93;;;23.30;48.00;;;;;;5012723;28;20431;-87
2022/03/13 09:38:09;;;;;;;3.95;3.00;;;23.60;48.20;;;;;;5024380;28;20032;-87
2022/03/13 09:40:35;;;;;;;5.00;3.20;;;23.80;48.00;;;;;;5038511;28;20083;-87
2022/03/13 09:43:05;;;;;;;4.55;3.28;;;24.10;46.40;;;;;;5009436;28;20071;-87
2022/03/13 09:45:31;;;;;;;4.32;2.95;;;24.20;44.00;;;;;;5008560;28;20030;-88
2022/03/13 09:47:57;;;;;;;3.53;2.85;;;24.30;44.60;;;;;;5016198;28;20072;-87
2022/03/13 09:50:23;;;;;;;3.93;3.10;;;24.30;43.60;;;;;;5040532;28;20508;-87
2022/03/13 09:52:49;;;;;;;4.25;3.00;;;24.30;42.90;;;;;;5041308;28;20126;-87
2022/03/13 09:55:15;;;;;;;3.60;2.90;;;24.20;42.70;;;;;;5027348;28;20025;-87
2022/03/13 09:57:43;;;;;;;3.45;2.72;;;24.20;43.60;;;;;;5016235;28;20127;-87
2022/03/13 10:00:11;;;;;;;3.93;2.77;;;24.20;43.80;;;;;;5051852;28;20129;-87
2022/03/13 10:02:38;;;;;;;3.42;2.72;;;24.40;43.50;;;;;;4994203;28;20477;-87
2022/03/13 10:05:12;;;;;;;4.15;2.65;;;24.50;43.50;;;;;;5018533;28;20040;-87
2022/03/13 10:07:58;;;;;;;3.25;2.40;;;24.60;41.60;;;;;;5025152;28;20108;-87
2022/03/13 10:10:28;;;;;;;4.03;2.70;;;24.60;39.60;;;;;;5016778;28;20499;-87
2022/03/13 10:12:54;;;;;;;3.17;2.47;;;24.60;41.60;;;;;;5028823;28;20124;-86
2022/03/13 10:15:21;;;;;;;3.40;2.40;;;24.60;41.60;;;;;;5018367;28;20029;-87
2022/03/13 10:17:48;;;;;;;3.20;2.50;;;24.50;40.80;;;;;;4996062;28;20218;-87
2022/03/13 10:20:27;;;;;;;2.80;2.00;;;24.40;41.10;;;;;;5005787;28;20031;-87
2022/03/13 10:22:59;;;;;;;3.13;2.20;;;24.40;41.20;;;;;;5019595;28;20039;-87
2022/03/13 10:25:39;;;;;;;3.40;2.50;;;24.50;42.20;;;;;;5003709;28;20536;-87
2022/03/13 10:28:23;;;;;;;3.35;2.50;;;24.70;42.10;;;;;;5040099;28;20036;-87
2022/03/13 10:30:58;;;;;;;2.88;2.10;;;24.90;40.30;;;;;;5027111;28;20392;-87
2022/03/13 10:33:28;;;;;;;3.30;2.00;;;25.10;41.50;;;;;;5019386;28;20029;-87
2022/03/13 10:36:34;;;;;;;4.38;2.47;;;25.20;41.50;;;;;;5007982;28;20029;-87
2022/03/13 10:39:02;;;;;;;2.90;2.30;;;25.40;39.50;;;;;;5034677;28;20016;-87
2022/03/13 10:41:45;;;;;;;2.95;2.30;;;25.40;39.70;;;;;;5030080;28;20053;-87
2022/03/13 10:44:17;;;;;;;3.28;2.08;;;25.40;38.90;;;;;;5029317;28;20037;-87
2022/03/13 10:46:43;;;;;;;2.40;2.00;;;25.40;38.70;;;;;;5014461;28;20276;-90
2022/03/13 10:49:09;;;;;;;3.50;2.30;;;25.30;38.80;;;;;;5010265;28;20116;-89
2022/03/13 10:51:41;;;;;;;3.08;2.10;;;25.30;39.10;;;;;;4997344;28;20043;-87
2022/03/13 10:54:07;;;;;;;2.63;2.15;;;25.40;39.60;;;;;;5023816;28;20029;-87
2022/03/13 10:56:33;;;;;;;2.97;2.30;;;25.50;40.40;;;;;;5022620;28;20036;-88
2022/03/13 10:59:17;;;;;;;2.87;2.30;;;25.80;40.00;;;;;;5040389;28;20493;-87
2022/03/13 11:01:44;;;;;;;3.53;2.53;;;26.00;39.10;;;;;;5008955;28;20210;-87
2022/03/13 11:04:10;;;;;;;3.22;2.22;;;26.20;38.80;;;;;;5019749;28;20059;-88
2022/03/13 11:06:36;;;;;;;2.30;1.90;;;26.30;38.80;;;;;;5013758;28;20090;-87
2022/03/13 11:09:02;;;;;;;2.70;2.20;;;26.40;38.60;;;;;;5001288;28;20036;-87
2022/03/13 11:11:28;;;;;;;3.50;2.20;;;26.60;38.50;;;;;;5016645;28;20122;-87
2022/03/13 11:13:57;;;;;;;3.72;2.38;;;26.70;38.70;;;;;;5025577;28;20032;-87
2022/03/13 11:16:31;;;;;;;2.50;2.00;;;26.80;37.70;;;;;;5007440;28;20201;-87
2022/03/13 11:19:02;;;;;;;3.67;2.35;;;27.00;37.20;;;;;;5008335;28;20119;-87
2022/03/13 11:21:29;;;;;;;2.10;1.80;;;27.10;36.70;;;;;;5006548;28;20087;-88
2022/03/13 11:23:55;;;;;;;3.27;2.20;;;27.30;38.00;;;;;;5008705;28;20393;-87
2022/03/13 11:26:24;;;;;;;2.78;2.15;;;27.40;37.40;;;;;;5035115;28;20166;-87
2022/03/13 11:28:53;;;;;;;2.92;2.33;;;27.60;36.70;;;;;;5026226;28;20681;-87
2022/03/13 11:31:32;;;;;;;3.03;2.40;;;27.70;36.00;;;;;;5012186;28;20029;-88
2022/03/13 11:34:12;;;;;;;3.17;2.17;;;27.80;33.50;;;;;;5019335;28;20235;-87
2022/03/13 11:36:41;;;;;;;2.07;1.57;;;27.70;33.90;;;;;;5032149;28;20434;-87
2022/03/13 11:39:08;;;;;;;2.10;1.83;;;27.50;34.60;;;;;;5027981;28;20166;-87
2022/03/13 11:41:46;;;;;;;4.38;2.33;;;27.40;34.90;;;;;;5017361;28;20032;-87
2022/03/13 11:44:23;;;;;;;3.35;2.25;;;27.40;34.60;;;;;;5012050;28;20492;-87
2022/03/13 11:46:50;;;;;;;2.55;2.03;;;27.30;34.10;;;;;;5004032;28;20045;-88
2022/03/13 11:49:37;;;;;;;2.10;1.63;;;27.30;34.40;;;;;;5007985;28;20409;-87
2022/03/13 11:52:11;;;;;;;3.13;2.20;;;27.30;33.70;;;;;;5021049;28;20734;-87
2022/03/13 11:54:46;;;;;;;3.30;1.98;;;27.20;33.80;;;;;;5027975;28;20397;-87
2022/03/13 11:57:18;;;;;;;2.60;1.80;;;27.20;33.60;;;;;;5013160;28;20032;-87
2022/03/13 11:59:48;;;;;;;2.85;2.10;;;27.10;33.30;;;;;;5010431;28;20048;-83
2022/03/13 12:02:40;;;;;;;2.00;1.63;;;26.90;33.30;;;;;;5030300;28;20283;-83
2022/03/13 12:05:25;;;;;;;2.08;1.70;;;26.70;32.90;;;;;;5027932;28;20598;-83
2022/03/13 12:08:05;;;;;;;1.70;1.60;;;26.50;31.60;;;;;;5012560;28;20124;-82
2022/03/13 12:10:37;;;;;;;2.05;1.70;;;26.40;32.90;;;;;;5008986;28;20048;-82
2022/03/13 12:13:07;;;;;;;2.35;1.50;;;26.20;33.20;;;;;;5024657;28;20029;-87
2022/03/13 12:15:34;;;;;;;2.47;1.70;;;26.10;32.90;;;;;;5034860;28;20064;-87
2022/03/13 12:18:17;;;;;;;2.60;2.00;;;26.00;32.90;;;;;;5010953;28;20029;-87
2022/03/13 12:20:45;;;;;;;2.33;1.70;;;25.90;31.80;;;;;;5035629;28;20091;-87
2022/03/13 12:23:23;;;;;;;2.30;1.90;;;25.80;33.40;;;;;;5004041;28;20133;-86
2022/03/13 12:25:50;;;;;;;1.90;1.58;;;25.80;33.60;;;;;;5013974;28;20384;-86
2022/03/13 12:28:19;;;;;;;3.27;1.70;;;25.80;34.50;;;;;;5016999;28;20101;-86
2022/03/13 12:30:44;;;;;;;1.88;1.60;;;26.00;34.20;;;;;;5040257;28;20381;-86
2022/03/13 12:33:14;;;;;;;2.38;1.88;;;26.10;34.50;;;;;;5041961;28;20029;-86
2022/03/13 12:35:40;;;;;;;2.53;1.80;;;26.20;34.30;;;;;;4997359;28;20033;-86
2022/03/13 12:38:07;;;;;;;1.90;1.50;;;26.40;34.30;;;;;;5037489;28;20029;-86
2022/03/13 12:40:47;;;;;;;1.73;1.45;;;26.50;33.70;;;;;;4993516;28;20025;-86
2022/03/13 12:43:13;;;;;;;1.80;1.60;;;26.50;32.80;;;;;;5030664;28;20033;-86
2022/03/13 12:45:51;;;;;;;2.00;1.70;;;26.50;33.10;;;;;;5018276;28;20044;-86
2022/03/13 12:48:17;;;;;;;1.38;1.25;;;26.50;32.60;;;;;;5031695;28;20508;-87
2022/03/13 12:50:47;;;;;;;2.50;1.67;;;26.40;32.60;;;;;;5007858;28;20269;-86